createdAt,value
2022-10-10T00:01:35.988Z,100455.72
2022-10-10T00:04:06.113Z,100457.66
2022-10-10T00:06:34.180Z,100451.59
2022-10-10T00:09:04.175Z,100455.13
2022-10-10T00:11:31.836Z,100452.50
2022-10-10T00:13:59.480Z,100446.44
2022-10-10T00:16:26.914Z,100450.84
2022-10-10T00:18:54.158Z,100457.94
2022-10-10T00:21:21.533Z,100455.38
2022-10-10T00:23:48.926Z,100451.75
2022-10-10T00:26:19.184Z,100448.38
2022-10-10T00:28:47.935Z,100453.78
2022-10-10T00:31:15.605Z,100456.41
2022-10-10T00:33:42.898Z,100455.59
2022-10-10T00:36:10.745Z,100453.00
2022-10-10T00:38:38.056Z,100452.09
2022-10-10T00:41:05.661Z,100449.47
2022-10-10T00:43:34.183Z,100456.53
2022-10-10T00:46:01.675Z,100451.19
2022-10-10T00:48:43.821Z,100446.81
2022-10-10T00:51:16.802Z,100445.09
2022-10-10T00:53:50.657Z,100442.47
2022-10-10T00:56:25.104Z,100443.41
2022-10-10T00:58:58.372Z,100435.47
2022-10-10T01:01:26.599Z,100444.31
2022-10-10T01:03:59.603Z,100442.56
2022-10-10T01:06:27.332Z,100442.47
2022-10-10T01:08:56.504Z,100443.34
2022-10-10T01:11:52.432Z,100441.56
2022-10-10T01:14:56.981Z,100439.88
2022-10-10T01:17:34.764Z,100433.88
2022-10-10T01:20:36.566Z,100433.00
2022-10-10T01:23:40.014Z,100437.41
2022-10-10T01:26:34.522Z,100434.66
2022-10-10T01:29:23.906Z,100431.97
2022-10-10T01:31:57.078Z,100438.81
2022-10-10T01:34:42.105Z,100435.09
2022-10-10T01:37:23.860Z,100430.56
2022-10-10T01:40:22.041Z,100430.44
2022-10-10T01:43:01.442Z,100434.22
2022-10-10T01:45:31.399Z,100425.09
2022-10-10T01:48:06.913Z,100427.44
2022-10-10T01:51:28.717Z,100432.38
2022-10-10T01:54:16.984Z,100426.63
2022-10-10T01:57:28.749Z,100428.19
2022-10-10T02:00:13.442Z,100425.41
2022-10-10T02:03:14.133Z,100413.91
2022-10-10T02:06:15.211Z,100416.44
2022-10-10T02:08:57.166Z,100417.41
2022-10-10T02:11:28.610Z,100417.47
2022-10-10T02:14:27.770Z,100424.31
2022-10-10T02:16:57.765Z,100416.25
2022-10-10T02:19:27.389Z,100420.63
2022-10-10T02:21:55.821Z,100411.88
2022-10-10T02:24:25.027Z,100411.69
2022-10-10T02:27:11.324Z,100418.00
2022-10-10T02:29:42.857Z,100416.13
2022-10-10T02:32:36.544Z,100409.97
2022-10-10T02:35:14.456Z,100405.66
2022-10-10T02:37:43.856Z,100404.72
2022-10-10T02:40:18.652Z,100402.75
2022-10-10T02:42:47.882Z,100407.09
2022-10-10T02:45:16.242Z,100403.56
2022-10-10T02:47:45.450Z,100400.81
2022-10-10T02:50:13.171Z,100406.06
2022-10-10T02:52:40.891Z,100413.72
2022-10-10T02:55:08.508Z,100405.63
2022-10-10T02:57:35.809Z,100402.88
2022-10-10T03:00:05.605Z,100400.25
2022-10-10T03:02:33.284Z,100404.72
2022-10-10T03:05:00.701Z,100403.84
2022-10-10T03:07:27.873Z,100408.19
2022-10-10T03:09:55.166Z,100407.16
2022-10-10T03:12:22.484Z,100408.13
2022-10-10T03:14:49.674Z,100415.31
2022-10-10T03:17:17.305Z,100410.16
2022-10-10T03:19:44.572Z,100411.03
2022-10-10T03:22:11.917Z,100419.78
2022-10-10T03:24:39.108Z,100424.66
2022-10-10T03:27:06.294Z,100417.56
2022-10-10T03:29:33.754Z,100427.97
2022-10-10T03:32:00.956Z,100426.31
2022-10-10T03:34:28.257Z,100423.81
2022-10-10T03:36:55.698Z,100422.97
2022-10-10T03:39:23.033Z,100420.25
2022-10-10T03:41:50.532Z,100430.72
2022-10-10T03:44:18.262Z,100426.06
2022-10-10T03:46:45.544Z,100427.03
2022-10-10T03:49:12.789Z,100423.63
2022-10-10T03:51:39.941Z,100428.09
2022-10-10T03:54:07.188Z,100432.50
2022-10-10T03:56:34.563Z,100433.50
2022-10-10T03:59:03.758Z,100436.13
2022-10-10T04:01:31.484Z,100432.50
2022-10-10T04:03:58.960Z,100433.50
2022-10-10T04:06:27.492Z,100432.69
2022-10-10T04:08:54.896Z,100431.72
2022-10-10T04:11:22.126Z,100440.69
2022-10-10T04:13:49.746Z,100436.44
2022-10-10T04:16:17.069Z,100440.69
2022-10-10T04:18:44.476Z,100434.41
2022-10-10T04:21:12.381Z,100428.34
2022-10-10T04:23:41.294Z,100435.56
2022-10-10T04:26:08.879Z,100436.38
2022-10-10T04:28:36.422Z,100436.38
2022-10-10T04:31:03.849Z,100439.13
2022-10-10T04:33:31.106Z,100428.59
2022-10-10T04:35:58.334Z,100433.81
2022-10-10T04:38:25.573Z,100428.47
2022-10-10T04:40:52.847Z,100429.25
2022-10-10T04:43:20.211Z,100427.66
2022-10-10T04:45:47.797Z,100429.38
2022-10-10T04:48:15.062Z,100431.84
2022-10-10T04:50:42.369Z,100430.03
2022-10-10T04:53:10.069Z,100429.13
2022-10-10T04:55:37.323Z,100426.56
2022-10-10T04:58:04.549Z,100428.34
2022-10-10T05:00:31.713Z,100428.22
2022-10-10T05:02:58.874Z,100441.38
2022-10-10T05:05:26.180Z,100428.16
2022-10-10T05:07:55.639Z,100433.63
2022-10-10T05:10:25.001Z,100430.03
2022-10-10T05:12:53.230Z,100432.88
2022-10-10T05:15:21.860Z,100434.66
2022-10-10T05:17:49.118Z,100442.34
2022-10-10T05:20:16.469Z,100448.22
2022-10-10T05:22:43.760Z,100445.78
2022-10-10T05:25:11.747Z,100450.84
2022-10-10T05:27:39.065Z,100448.22
2022-10-10T05:30:07.100Z,100444.75
2022-10-10T05:32:35.248Z,100442.88
2022-10-10T05:35:04.149Z,100450.72
2022-10-10T05:37:33.041Z,100443.75
2022-10-10T05:40:00.212Z,100447.44
2022-10-10T05:42:28.165Z,100448.34
2022-10-10T05:44:55.905Z,100446.53
2022-10-10T05:47:27.621Z,100451.78
2022-10-10T05:49:55.325Z,100459.94
2022-10-10T05:52:22.585Z,100465.47
2022-10-10T05:54:50.039Z,100470.84
2022-10-10T05:57:17.268Z,100463.09
2022-10-10T05:59:44.519Z,100469.44
2022-10-10T06:02:14.270Z,100467.66
2022-10-10T06:04:41.684Z,100480.09
2022-10-10T06:07:09.578Z,100474.00
2022-10-10T06:09:37.369Z,100476.75
2022-10-10T06:12:04.605Z,100476.06
2022-10-10T06:14:31.776Z,100483.84
2022-10-10T06:17:00.167Z,100486.47
2022-10-10T06:19:27.339Z,100480.38
2022-10-10T06:21:54.522Z,100481.41
2022-10-10T06:24:21.777Z,100484.91
2022-10-10T06:26:49.129Z,100494.03
2022-10-10T06:29:16.314Z,100486.97
2022-10-10T06:31:43.424Z,100487.72
2022-10-10T06:34:10.630Z,100488.69
2022-10-10T06:36:37.957Z,100497.50
2022-10-10T06:39:05.100Z,100500.16
2022-10-10T06:41:32.500Z,100498.44
2022-10-10T06:43:59.724Z,100500.28
2022-10-10T06:46:26.913Z,100503.97
2022-10-10T06:48:54.625Z,100505.91
2022-10-10T06:51:21.978Z,100506.84
2022-10-10T06:53:49.634Z,100509.47
2022-10-10T06:56:26.334Z,100522.66
2022-10-10T06:58:55.548Z,100520.94
2022-10-10T07:01:25.433Z,100521.91
2022-10-10T07:03:53.498Z,100522.09
2022-10-10T07:06:21.278Z,100525.81
2022-10-10T07:08:48.631Z,100532.19
2022-10-10T07:11:16.060Z,100532.00
2022-10-10T07:13:43.438Z,100533.03
2022-10-10T07:16:11.542Z,100524.41
2022-10-10T07:18:38.786Z,100533.66
2022-10-10T07:21:06.598Z,100526.78
2022-10-10T07:23:33.865Z,100537.47
2022-10-10T07:26:08.858Z,100525.19
2022-10-10T07:28:36.835Z,100531.91
2022-10-10T07:31:10.416Z,100539.19
2022-10-10T07:33:48.913Z,100540.22
2022-10-10T07:36:18.422Z,100532.66
2022-10-10T07:38:49.861Z,100539.09
2022-10-10T07:41:17.836Z,100534.84
2022-10-10T07:43:45.611Z,100541.38
2022-10-10T07:46:20.626Z,100527.25
2022-10-10T07:48:49.177Z,100533.63
2022-10-10T07:51:17.229Z,100536.31
2022-10-10T07:53:44.636Z,100537.31
2022-10-10T07:56:12.123Z,100538.22
2022-10-10T07:58:39.567Z,100534.59
2022-10-10T08:01:10.809Z,100538.31
2022-10-10T08:03:38.883Z,100542.56
2022-10-10T08:06:13.699Z,100538.22
2022-10-10T08:08:50.461Z,100538.91
2022-10-10T08:11:22.152Z,100532.25
2022-10-10T08:13:50.944Z,100532.28
2022-10-10T08:16:19.145Z,100540.31
2022-10-10T08:18:46.658Z,100539.91
2022-10-10T08:21:16.060Z,100543.59
2022-10-10T08:23:43.248Z,100532.44
2022-10-10T08:26:14.466Z,100531.09
2022-10-10T08:28:42.367Z,100539.31
2022-10-10T08:31:14.893Z,100528.81
2022-10-10T08:33:45.830Z,100526.41
2022-10-10T08:36:23.454Z,100521.44
2022-10-10T08:38:53.374Z,100519.41
2022-10-10T08:42:01.079Z,100510.06
2022-10-10T08:44:52.074Z,100508.16
2022-10-10T08:47:38.276Z,100511.94
2022-10-10T08:50:34.084Z,100506.72
2022-10-10T08:53:35.633Z,100506.56
2022-10-10T08:56:07.593Z,100512.44
2022-10-10T08:58:43.995Z,100502.56
2022-10-10T09:01:25.102Z,100509.50
2022-10-10T09:04:00.668Z,100507.22
2022-10-10T09:07:34.065Z,100509.13
2022-10-10T09:10:18.214Z,100511.13
2022-10-10T09:13:28.085Z,100509.22
2022-10-10T09:15:59.492Z,100509.31
2022-10-10T09:18:43.582Z,100517.59
2022-10-10T09:21:37.725Z,100503.06
2022-10-10T09:24:25.584Z,100512.94
2022-10-10T09:27:06.979Z,100509.59
2022-10-10T09:29:52.104Z,100506.91
2022-10-10T09:33:09.092Z,100508.63
2022-10-10T09:35:39.338Z,100512.56
2022-10-10T09:38:48.490Z,100508.09
2022-10-10T09:41:31.838Z,100503.00
2022-10-10T09:44:05.441Z,100504.09
2022-10-10T09:46:32.654Z,100509.81
2022-10-10T09:48:59.964Z,100511.59
2022-10-10T09:51:29.456Z,100511.47
2022-10-10T09:53:56.709Z,100509.66
2022-10-10T09:56:38.396Z,100516.78
2022-10-10T09:59:05.688Z,100521.97
2022-10-10T10:01:32.985Z,100518.94
2022-10-10T10:04:28.422Z,100524.72
2022-10-10T10:07:18.680Z,100515.97
2022-10-10T10:09:53.256Z,100520.38
2022-10-10T10:12:28.145Z,100519.19
2022-10-10T10:15:15.220Z,100516.28
2022-10-10T10:17:43.285Z,100515.69
2022-10-10T10:20:46.744Z,100510.47
2022-10-10T10:23:33.313Z,100509.28
2022-10-10T10:26:15.683Z,100513.56
2022-10-10T10:28:44.403Z,100515.69
2022-10-10T10:31:42.712Z,100509.81
2022-10-10T10:34:54.572Z,100523.69
2022-10-10T10:38:06.603Z,100519.13
2022-10-10T10:41:05.615Z,100523.72
2022-10-10T10:43:56.204Z,100513.88
2022-10-10T10:47:05.178Z,100513.50
2022-10-10T10:50:00.182Z,100512.84
2022-10-10T10:53:07.201Z,100513.69
2022-10-10T10:56:19.491Z,100508.53
2022-10-10T11:00:25.945Z,100503.09
2022-10-10T11:03:20.908Z,100499.16
2022-10-10T11:06:17.955Z,100492.53
2022-10-10T11:09:45.066Z,100496.81
2022-10-10T11:13:13.189Z,100487.44
2022-10-10T11:19:26.388Z,100485.72
2022-10-10T11:22:13.412Z,100494.53
2022-10-10T11:25:05.790Z,100484.56
2022-10-10T11:27:42.276Z,100481.28
2022-10-10T11:30:31.214Z,100483.19
2022-10-10T11:33:29.574Z,100477.34
2022-10-10T11:36:21.303Z,100480.53
2022-10-10T11:39:24.091Z,100474.78
2022-10-10T11:42:14.205Z,100470.31
2022-10-10T11:45:14.694Z,100465.75
2022-10-10T11:48:13.543Z,100466.19
2022-10-10T11:50:43.574Z,100458.03
2022-10-10T11:53:31.384Z,100459.94
2022-10-10T11:56:31.717Z,100461.72
2022-10-10T11:59:17.921Z,100457.25
2022-10-10T12:01:56.386Z,100458.25
2022-10-10T12:04:23.965Z,100446.53
2022-10-10T12:07:04.283Z,100447.47
2022-10-10T12:09:57.454Z,100448.50
2022-10-10T12:12:44.095Z,100448.88
2022-10-10T12:15:40.263Z,100452.38
2022-10-10T12:18:29.892Z,100448.66
2022-10-10T12:21:17.767Z,100448.72
2022-10-10T12:23:50.368Z,100441.00
2022-10-10T12:26:21.682Z,100444.59
2022-10-10T12:29:10.404Z,100441.66
2022-10-10T12:31:41.197Z,100444.38
2022-10-10T12:34:49.995Z,100438.66
2022-10-10T12:38:07.269Z,100430.66
2022-10-10T12:40:58.161Z,100431.72
2022-10-10T12:44:14.660Z,100431.56
2022-10-10T12:46:43.386Z,100425.88
2022-10-10T12:49:25.168Z,100422.31
2022-10-10T12:52:22.027Z,100422.47
2022-10-10T12:54:50.832Z,100429.31
2022-10-10T12:57:32.184Z,100422.28
2022-10-10T13:00:37.916Z,100422.34
2022-10-10T13:03:45.409Z,100431.94
2022-10-10T13:06:38.881Z,100430.31
2022-10-10T13:09:24.132Z,100430.31
2022-10-10T13:12:05.976Z,100438.06
2022-10-10T13:14:45.514Z,100432.78
2022-10-10T13:17:38.412Z,100434.47
2022-10-10T13:20:09.929Z,100437.66
2022-10-10T13:22:37.396Z,100428.78
2022-10-10T13:25:09.949Z,100429.81
2022-10-10T13:27:37.353Z,100432.28
2022-10-10T13:30:07.440Z,100434.16
2022-10-10T13:32:36.142Z,100427.81
2022-10-10T13:35:23.157Z,100422.56
2022-10-10T13:37:59.380Z,100427.09
2022-10-10T13:40:28.072Z,100428.78
2022-10-10T13:42:56.293Z,100426.19
2022-10-10T13:45:27.865Z,100423.69
2022-10-10T13:48:03.284Z,100424.53
2022-10-10T13:50:32.881Z,100429.72
2022-10-10T13:53:23.042Z,100426.06
2022-10-10T13:56:05.432Z,100422.47
2022-10-10T13:58:47.592Z,100418.97
2022-10-10T14:01:42.594Z,100418.06
2022-10-10T14:04:45.251Z,100414.50
2022-10-10T14:07:29.888Z,100411.84
2022-10-10T14:10:06.796Z,100413.59
2022-10-10T14:13:17.376Z,100408.09
2022-10-10T14:15:47.017Z,100406.41
2022-10-10T14:18:24.955Z,100415.16
2022-10-10T14:20:53.523Z,100408.97
2022-10-10T14:23:21.708Z,100415.22
2022-10-10T14:25:50.029Z,100412.38
2022-10-10T14:28:26.163Z,100410.50
2022-10-10T14:30:53.509Z,100411.38
2022-10-10T14:33:21.280Z,100417.53
2022-10-10T14:35:51.974Z,100415.78
2022-10-10T14:38:19.864Z,100414.84
2022-10-10T14:40:50.314Z,100413.91
2022-10-10T14:43:20.445Z,100419.28
2022-10-10T14:45:52.101Z,100407.78
2022-10-10T14:48:20.254Z,100413.06
2022-10-10T14:50:49.440Z,100414.00
2022-10-10T14:53:17.692Z,100411.31
2022-10-10T14:55:45.920Z,100410.44
2022-10-10T14:58:19.588Z,100411.34
2022-10-10T15:00:47.961Z,100410.41
2022-10-10T15:03:15.528Z,100405.09
2022-10-10T15:05:42.860Z,100399.84
2022-10-10T15:08:16.300Z,100400.78
2022-10-10T15:10:45.375Z,100397.22
2022-10-10T15:13:13.557Z,100393.63
2022-10-10T15:15:41.287Z,100396.31
2022-10-10T15:18:25.649Z,100399.81
2022-10-10T15:20:56.666Z,100396.25
2022-10-10T15:23:23.944Z,100395.34
2022-10-10T15:25:51.101Z,100392.66
2022-10-10T15:28:18.540Z,100390.81
2022-10-10T15:30:46.452Z,100398.72
2022-10-10T15:33:13.695Z,100396.00
2022-10-10T15:36:04.319Z,100387.97
2022-10-10T15:38:30.592Z,100388.81
2022-10-10T15:41:09.250Z,100391.38
2022-10-10T15:43:54.617Z,100395.75
2022-10-10T15:46:26.471Z,100393.03
2022-10-10T15:48:55.385Z,100390.38
2022-10-10T15:51:22.805Z,100393.88
2022-10-10T15:53:52.006Z,100390.31
2022-10-10T15:56:19.366Z,100393.78
2022-10-10T15:58:46.653Z,100392.03
2022-10-10T16:01:18.807Z,100386.78
2022-10-10T16:03:50.037Z,100393.78
2022-10-10T16:06:20.182Z,100392.91
2022-10-10T16:08:52.732Z,100393.69
2022-10-10T16:11:31.583Z,100391.88
2022-10-10T16:13:58.882Z,100391.78
2022-10-10T16:16:26.896Z,100381.91
2022-10-10T16:18:54.180Z,100388.84
2022-10-10T16:21:24.365Z,100381.66
2022-10-10T16:23:57.056Z,100391.19
2022-10-10T16:26:32.881Z,100391.03
2022-10-10T16:29:01.593Z,100392.69
2022-10-10T16:31:29.667Z,100398.66
2022-10-10T16:33:59.393Z,100388.91
2022-10-10T16:36:32.481Z,100397.56
2022-10-10T16:39:00.490Z,100397.41
2022-10-10T16:41:47.176Z,100393.84
2022-10-10T16:44:15.745Z,100390.97
2022-10-10T16:46:43.053Z,100399.63
2022-10-10T16:49:16.349Z,100404.03
2022-10-10T16:51:44.011Z,100402.91
2022-10-10T16:54:11.267Z,100398.38
2022-10-10T16:56:38.700Z,100401.56
2022-10-10T16:59:06.065Z,100404.88
2022-10-10T17:01:34.556Z,100395.81
2022-10-10T17:04:03.035Z,100404.50
2022-10-10T17:06:37.267Z,100411.56
2022-10-10T17:09:11.325Z,100416.81
2022-10-10T17:11:38.558Z,100421.16
2022-10-10T17:14:05.978Z,100428.88
2022-10-10T17:17:06.970Z,100430.63
2022-10-10T17:19:20.669Z,100434.69
2022-10-10T17:21:48.064Z,100437.19
2022-10-10T17:24:17.211Z,100440.56
2022-10-10T17:26:44.530Z,100443.06
2022-10-10T17:29:12.338Z,100443.81
2022-10-10T17:31:40.567Z,100446.34
2022-10-10T17:34:07.762Z,100453.31
2022-10-10T17:36:34.886Z,100455.09
2022-10-10T17:39:02.073Z,100453.22
2022-10-10T17:41:29.801Z,100457.66
2022-10-10T17:43:57.148Z,100452.06
2022-10-10T17:46:36.658Z,100450.38
2022-10-10T17:49:07.162Z,100448.00
2022-10-10T17:51:37.420Z,100449.00
2022-10-10T17:54:06.365Z,100441.72
2022-10-10T17:56:35.061Z,100447.25
2022-10-10T17:59:06.232Z,100447.72
2022-10-10T18:01:35.710Z,100445.94
2022-10-10T18:04:03.688Z,100447.50
2022-10-10T18:06:32.985Z,100448.19
2022-10-10T18:09:00.760Z,100444.53
2022-10-10T18:11:31.449Z,100449.81
2022-10-10T18:14:02.424Z,100442.69
2022-10-10T18:16:36.575Z,100457.59
2022-10-10T18:19:10.164Z,100456.59
2022-10-10T18:21:37.969Z,100457.81
2022-10-10T18:24:06.279Z,100445.13
2022-10-10T18:26:34.873Z,100450.25
2022-10-10T18:29:02.213Z,100449.97
2022-10-10T18:31:35.484Z,100454.97
2022-10-10T18:34:05.253Z,100462.94
2022-10-10T18:36:38.257Z,100463.03
2022-10-10T18:39:12.529Z,100454.44
2022-10-10T18:41:40.473Z,100455.53
2022-10-10T18:44:13.611Z,100448.50
2022-10-10T18:46:41.061Z,100448.41
2022-10-10T18:49:09.081Z,100447.16
2022-10-10T18:51:41.284Z,100446.13
2022-10-10T18:54:12.893Z,100445.16
2022-10-10T18:56:42.494Z,100446.78
2022-10-10T18:59:18.353Z,100458.06
2022-10-10T19:01:46.553Z,100461.28
2022-10-10T19:04:16.046Z,100467.13
2022-10-10T19:06:44.147Z,100466.88
2022-10-10T19:09:16.109Z,100468.56
2022-10-10T19:11:48.280Z,100472.66
2022-10-10T19:14:18.425Z,100474.25
2022-10-10T19:16:47.576Z,100469.91
2022-10-10T19:19:18.888Z,100476.84
2022-10-10T19:21:49.977Z,100476.72
2022-10-10T19:24:21.068Z,100475.75
2022-10-10T19:26:56.620Z,100478.25
2022-10-10T19:29:26.309Z,100473.22
2022-10-10T19:31:54.547Z,100477.03
2022-10-10T19:34:22.820Z,100474.63
2022-10-10T19:36:51.502Z,100470.56
2022-10-10T19:39:18.891Z,100469.22
2022-10-10T19:41:46.147Z,100465.31
2022-10-10T19:44:13.346Z,100465.84
2022-10-10T19:46:40.700Z,100473.44
2022-10-10T19:49:07.928Z,100468.91
2022-10-10T19:51:35.224Z,100470.56
2022-10-10T19:54:05.607Z,100475.34
2022-10-10T19:56:34.238Z,100476.63
2022-10-10T19:59:04.465Z,100478.94
2022-10-10T20:01:32.734Z,100480.69
2022-10-10T20:04:00.081Z,100484.88
2022-10-10T20:06:28.442Z,100488.78
2022-10-10T20:08:56.049Z,100490.78
2022-10-10T20:11:26.125Z,100495.25
2022-10-10T20:13:55.137Z,100493.34
2022-10-10T20:16:24.730Z,100495.91
2022-10-10T20:18:52.650Z,100503.69
2022-10-10T20:21:33.033Z,100497.81
2022-10-10T20:24:06.085Z,100502.41
2022-10-10T20:26:34.363Z,100506.69
2022-10-10T20:29:03.711Z,100505.84
2022-10-10T20:31:35.647Z,100502.97
2022-10-10T20:34:06.004Z,100513.56
2022-10-10T20:36:35.372Z,100516.47
2022-10-10T20:39:11.405Z,100518.00
2022-10-10T20:41:41.189Z,100523.78
2022-10-10T20:44:13.216Z,100519.63
2022-10-10T20:46:44.405Z,100521.59
2022-10-10T20:49:21.633Z,100525.94
2022-10-10T20:51:51.628Z,100529.69
2022-10-10T20:54:22.516Z,100531.81
2022-10-10T20:56:49.867Z,100531.53
2022-10-10T20:59:19.425Z,100533.78
2022-10-10T21:01:47.127Z,100541.34
2022-10-10T21:04:15.036Z,100539.94
2022-10-10T21:06:45.346Z,100545.81
2022-10-10T21:09:15.466Z,100538.69
2022-10-10T21:11:44.111Z,100542.78
2022-10-10T21:14:13.867Z,100538.94
2022-10-10T21:16:41.780Z,100540.66
2022-10-10T21:19:11.945Z,100547.69
2022-10-10T21:21:39.621Z,100547.16
2022-10-10T21:24:11.125Z,100553.44
2022-10-10T21:26:40.650Z,100555.88
2022-10-10T21:29:08.356Z,100555.59
2022-10-10T21:31:41.087Z,100558.09
2022-10-10T21:34:19.062Z,100554.38
2022-10-10T21:36:46.792Z,100549.84
2022-10-10T21:39:14.922Z,100558.59
2022-10-10T21:41:42.462Z,100559.22
2022-10-10T21:44:10.818Z,100555.28
2022-10-10T21:46:38.037Z,100560.13
2022-10-10T21:49:11.125Z,100558.25
2022-10-10T21:51:45.575Z,100556.38
2022-10-10T21:54:14.034Z,100553.41
2022-10-10T21:56:41.553Z,100559.56
2022-10-10T21:59:10.230Z,100546.97
2022-10-10T22:01:37.908Z,100554.00
2022-10-10T22:04:05.949Z,100558.53
2022-10-10T22:06:33.365Z,100552.97
2022-10-10T22:09:02.102Z,100556.97
2022-10-10T22:11:32.260Z,100563.00
2022-10-10T22:14:02.385Z,100563.88
2022-10-10T22:16:32.135Z,100570.19
2022-10-10T22:18:59.963Z,100576.13
2022-10-10T22:21:31.749Z,100567.88
2022-10-10T22:24:03.190Z,100566.06
2022-10-10T22:26:31.302Z,100574.63
2022-10-10T22:28:59.692Z,100574.09
2022-10-10T22:31:27.193Z,100567.72
2022-10-10T22:33:54.555Z,100576.44
2022-10-10T22:36:21.760Z,100574.34
2022-10-10T22:38:48.922Z,100578.44
2022-10-10T22:41:16.153Z,100573.88
2022-10-10T22:43:43.287Z,100577.63
2022-10-10T22:46:10.573Z,100582.88
2022-10-10T22:48:38.569Z,100576.84
2022-10-10T22:51:12.444Z,100582.25
2022-10-10T22:53:41.385Z,100578.97
2022-10-10T22:56:11.572Z,100579.94
2022-10-10T22:58:38.823Z,100577.69
2022-10-10T23:01:14.245Z,100580.16
2022-10-10T23:03:41.993Z,100577.91
2022-10-10T23:06:09.850Z,100576.69
2022-10-10T23:08:37.652Z,100568.88
2022-10-10T23:11:05.104Z,100566.19
2022-10-10T23:13:32.799Z,100563.56
2022-10-10T23:16:00.069Z,100559.97
2022-10-10T23:18:29.338Z,100563.03
2022-10-10T23:20:56.955Z,100571.88
2022-10-10T23:23:25.074Z,100575.03
2022-10-10T23:25:52.560Z,100583.16
2022-10-10T23:28:20.232Z,100577.13
2022-10-10T23:30:48.926Z,100579.69
2022-10-10T23:33:17.398Z,100576.16
2022-10-10T23:35:44.826Z,100574.59
2022-10-10T23:38:12.086Z,100577.59
2022-10-10T23:40:39.274Z,100573.59
2022-10-10T23:43:07.392Z,100580.59
2022-10-10T23:45:34.671Z,100579.53
2022-10-10T23:48:01.979Z,100574.88
2022-10-10T23:50:29.305Z,100578.06
2022-10-10T23:52:56.530Z,100578.22
2022-10-10T23:55:24.940Z,100580.38
2022-10-10T23:57:52.312Z,100587.41
